Time;durP1;ratioP1;P1;durP2;ratioP2;P2;SDS_P1;SDS_P2;PMS_P1;PMS_P2;Temp;Humidity;BMP_temperature;BMP_pressure;BME280_temperature;BME280_humidity;BME280_pressure;Samples;Min_cycle;Max_cycle;Signal;HPM_P1;HPM_P2
2023/12/27 00:02:01;;;;;;;4.80;3.10;;;9.30;1.00;;;;;;5008233;28;20529;-72
2023/12/27 00:04:26;;;;;;;6.97;3.40;;;9.20;1.00;;;;;;5008521;28;20269;-72
2023/12/27 00:06:53;;;;;;;7.60;3.50;;;9.20;1.00;;;;;;5007498;28;20187;-72
2023/12/27 00:09:18;;;;;;;5.00;3.07;;;9.20;1.00;;;;;;5008126;28;20600;-72
2023/12/27 00:11:44;;;;;;;5.00;2.73;;;9.20;1.00;;;;;;5008523;28;20427;-72
2023/12/27 00:14:09;;;;;;;7.97;3.60;;;9.20;1.00;;;;;;5009169;28;20187;-72
2023/12/27 00:16:35;;;;;;;5.70;3.20;;;9.20;1.00;;;;;;5006867;28;20624;-72
2023/12/27 00:19:00;;;;;;;5.60;3.43;;;10.40;1.00;;;;;;5008986;28;20225;-72
2023/12/27 00:21:26;;;;;;;9.53;3.63;;;9.10;1.00;;;;;;5008681;28;20210;-72
2023/12/27 00:23:51;;;;;;;7.87;4.00;;;9.10;1.00;;;;;;5008896;28;20691;-72
2023/12/27 00:26:17;;;;;;;5.20;3.73;;;9.10;1.00;;;;;;5006802;28;21650;-72
2023/12/27 00:28:42;;;;;;;6.83;3.10;;;9.10;1.00;;;;;;5007560;28;20226;-72
2023/12/27 00:31:08;;;;;;;5.83;3.10;;;9.00;1.00;;;;;;5008519;28;20189;-72
2023/12/27 00:33:33;;;;;;;7.37;3.30;;;9.10;1.00;;;;;;5007484;28;20171;-71
2023/12/27 00:35:59;;;;;;;10.43;3.83;;;9.00;1.00;;;;;;5008152;28;20222;-71
2023/12/27 00:38:24;;;;;;;6.80;3.27;;;9.10;1.00;;;;;;5009019;28;20182;-71
2023/12/27 00:40:50;;;;;;;4.67;3.33;;;9.10;1.00;;;;;;5006904;28;20749;-72
2023/12/27 00:43:16;;;;;;;7.20;3.30;;;;;;;;;;5004068;28;20572;-71
2023/12/27 00:45:41;;;;;;;8.47;3.13;;;9.00;1.00;;;;;;5010788;28;20285;-72
2023/12/27 00:48:07;;;;;;;7.67;3.43;;;9.00;1.00;;;;;;5012204;28;20428;-72
2023/12/27 00:50:32;;;;;;;4.87;3.50;;;9.00;1.00;;;;;;5011473;28;20200;-72
2023/12/27 00:52:58;;;;;;;4.80;3.10;;;9.00;1.00;;;;;;5012410;28;20574;-71
2023/12/27 00:55:24;;;;;;;7.67;3.10;;;9.00;1.00;;;;;;5009584;28;20198;-71
2023/12/27 00:57:49;;;;;;;12.70;4.13;;;9.00;1.00;;;;;;5012877;28;20190;-72
2023/12/27 01:00:15;;;;;;;5.13;3.13;;;9.10;1.00;;;;;;5010855;28;20246;-71
2023/12/27 01:02:41;;;;;;;5.83;3.10;;;9.10;1.00;;;;;;5012342;28;20710;-72
2023/12/27 01:05:07;;;;;;;5.60;2.90;;;9.00;1.00;;;;;;5011529;28;20447;-71
2023/12/27 01:07:33;;;;;;;9.30;2.83;;;9.00;1.00;;;;;;5010745;28;20185;-72
2023/12/27 01:09:58;;;;;;;7.93;3.40;;;9.00;1.00;;;;;;5012394;28;20429;-71
2023/12/27 01:12:24;;;;;;;8.90;3.93;;;9.00;1.00;;;;;;5011977;28;20435;-71
2023/12/27 01:14:49;;;;;;;16.40;3.77;;;8.90;1.00;;;;;;5009850;28;20206;-72
2023/12/27 01:17:15;;;;;;;7.63;3.33;;;8.90;1.00;;;;;;5009938;28;20337;-72
2023/12/27 01:19:40;;;;;;;9.57;3.40;;;8.90;1.00;;;;;;5012390;28;20198;-72
2023/12/27 01:22:06;;;;;;;9.53;3.50;;;8.90;1.00;;;;;;5010344;28;20201;-71
2023/12/27 01:24:31;;;;;;;9.30;4.20;;;8.80;1.00;;;;;;5011500;28;20210;-72
2023/12/27 01:26:57;;;;;;;9.27;3.90;;;8.90;1.00;;;;;;5011722;28;20755;-71
2023/12/27 01:29:22;;;;;;;6.33;3.20;;;8.80;1.00;;;;;;5009714;28;20175;-72
2023/12/27 01:31:48;;;;;;;5.87;3.73;;;8.80;1.00;;;;;;5011692;28;20305;-72
2023/12/27 01:34:13;;;;;;;7.57;3.53;;;8.80;1.00;;;;;;5010980;28;20568;-72
2023/12/27 01:36:39;;;;;;;7.37;3.57;;;8.80;1.00;;;;;;5012716;22;20270;-80
2023/12/27 01:39:06;;;;;;;8.37;3.37;;;8.90;1.00;;;;;;4971341;28;20179;-77
2023/12/27 01:41:31;;;;;;;7.30;3.20;;;8.80;1.00;;;;;;4972036;28;20172;-79
2023/12/27 01:43:57;;;;;;;7.10;3.53;;;8.80;1.00;;;;;;4972576;28;20521;-78
2023/12/27 01:46:23;;;;;;;8.00;3.97;;;8.70;1.00;;;;;;4974073;28;20208;-79
2023/12/27 01:48:49;;;;;;;14.30;3.30;;;8.70;1.00;;;;;;4986384;28;20262;-79
2023/12/27 01:51:15;;;;;;;6.80;3.30;;;8.70;1.00;;;;;;4979688;28;20176;-80
2023/12/27 01:53:41;;;;;;;9.43;3.33;;;8.60;1.00;;;;;;4978463;28;20469;-79
2023/12/27 01:56:07;;;;;;;6.20;3.20;;;8.60;1.00;;;;;;4982250;28;20681;-77
2023/12/27 01:58:34;;;;;;;5.60;3.10;;;8.60;1.00;;;;;;4981663;28;20191;-79
2023/12/27 02:01:00;;;;;;;6.33;3.30;;;8.60;1.00;;;;;;4984315;28;20818;-80
2023/12/27 02:03:25;;;;;;;11.83;3.50;;;8.60;1.00;;;;;;4979716;28;20616;-79
2023/12/27 02:05:53;;;;;;;7.80;3.50;;;8.60;1.00;;;;;;4970344;28;20235;-79
2023/12/27 02:08:19;;;;;;;8.80;3.83;;;8.60;1.00;;;;;;4983847;28;20182;-80
2023/12/27 02:10:46;;;;;;;13.03;3.40;;;8.60;1.00;;;;;;4975092;28;20518;-81
2023/12/27 02:13:11;;;;;;;8.60;3.27;;;8.60;1.00;;;;;;4976685;28;20940;-80
2023/12/27 02:15:37;;;;;;;5.20;3.40;;;8.60;1.00;;;;;;4971554;28;20442;-80
2023/12/27 02:18:05;;;;;;;8.27;3.30;;;8.60;1.00;;;;;;4971993;28;20199;-80
2023/12/27 02:20:32;;;;;;;8.30;3.30;;;8.60;1.00;;;;;;4980587;28;20246;-78
2023/12/27 02:22:59;;;;;;;4.43;3.03;;;8.60;1.00;;;;;;4980174;28;20557;-80
2023/12/27 02:25:26;;;;;;;4.83;3.03;;;8.60;1.00;;;;;;4972493;28;20427;-80
2023/12/27 02:27:52;;;;;;;7.70;3.43;;;8.60;1.00;;;;;;4979468;28;20929;-80
2023/12/27 02:30:21;;;;;;;7.60;3.20;;;8.60;1.00;;;;;;4981996;28;20434;-79
2023/12/27 02:32:48;;;;;;;9.67;3.37;;;8.70;1.00;;;;;;4967160;28;20183;-80
2023/12/27 02:35:13;;;;;;;9.40;3.67;;;8.60;1.00;;;;;;4979020;28;20490;-80
2023/12/27 02:37:39;;;;;;;4.70;3.00;;;8.70;1.00;;;;;;4978371;28;20450;-80
2023/12/27 02:40:05;;;;;;;6.80;3.40;;;8.70;1.00;;;;;;4972505;28;20191;-80
2023/12/27 02:42:31;;;;;;;5.93;3.10;;;8.70;1.00;;;;;;4982169;28;20576;-80
2023/12/27 02:44:56;;;;;;;6.53;4.30;;;8.70;1.00;;;;;;4977916;28;20432;-80
2023/12/27 02:47:22;;;;;;;9.80;3.60;;;8.70;1.00;;;;;;4985882;28;20203;-78
2023/12/27 02:49:48;;;;;;;9.27;3.33;;;8.70;1.00;;;;;;4974035;28;20188;-77
2023/12/27 02:52:13;;;;;;;9.07;3.23;;;8.70;1.00;;;;;;4979248;28;20266;-77
2023/12/27 02:54:39;;;;;;;7.30;2.83;;;8.70;1.00;;;;;;4982550;28;20182;-77
2023/12/27 02:57:04;;;;;;;7.17;3.20;;;8.70;1.00;;;;;;4990284;28;20292;-79
2023/12/27 02:59:30;;;;;;;7.47;3.80;;;8.70;1.00;;;;;;4984744;28;20657;-79
2023/12/27 03:01:55;;;;;;;5.90;3.30;;;8.70;1.00;;;;;;4977640;28;20183;-79
2023/12/27 03:04:21;;;;;;;4.53;3.10;;;8.70;1.00;;;;;;4973641;28;20287;-76
2023/12/27 03:06:46;;;;;;;13.83;3.13;;;8.70;1.00;;;;;;4970741;28;20203;-80
2023/12/27 03:09:12;;;;;;;6.50;2.97;;;8.70;1.00;;;;;;4987778;28;20183;-80
2023/12/27 03:11:38;;;;;;;8.20;3.00;;;8.70;1.00;;;;;;4968285;28;20199;-80
2023/12/27 03:14:04;;;;;;;8.43;3.40;;;8.60;1.00;;;;;;4988454;28;20735;-80
2023/12/27 03:16:29;;;;;;;7.10;3.30;;;8.60;1.00;;;;;;4974417;28;20447;-80
2023/12/27 03:18:56;;;;;;;9.33;3.63;;;8.70;1.00;;;;;;4978593;28;20217;-80
2023/12/27 03:21:21;;;;;;;5.73;3.10;;;8.60;1.00;;;;;;4972957;28;20211;-80
2023/12/27 03:23:47;;;;;;;5.80;3.07;;;8.60;1.00;;;;;;4977778;28;20517;-81
2023/12/27 03:26:13;;;;;;;7.23;3.47;;;8.60;1.00;;;;;;4988237;28;20577;-80
2023/12/27 03:28:38;;;;;;;10.47;3.33;;;8.70;1.00;;;;;;4976071;28;20435;-80
2023/12/27 03:31:04;;;;;;;8.73;3.10;;;8.70;1.00;;;;;;4983479;28;20190;-80
2023/12/27 03:33:30;;;;;;;6.90;3.13;;;8.70;1.00;;;;;;4988446;28;20222;-80
2023/12/27 03:35:55;;;;;;;9.93;3.10;;;8.70;1.00;;;;;;4980576;28;20289;-80
2023/12/27 03:38:21;;;;;;;8.30;3.37;;;8.70;1.00;;;;;;4984077;28;20285;-79
2023/12/27 03:40:46;;;;;;;7.83;3.10;;;8.80;1.00;;;;;;4983887;28;20295;-79
2023/12/27 03:43:12;;;;;;;6.57;2.73;;;8.80;1.00;;;;;;4978347;28;20218;-80
2023/12/27 03:45:38;;;;;;;12.30;3.07;;;8.80;1.00;;;;;;4971933;28;20270;-79
2023/12/27 03:48:04;;;;;;;5.87;2.60;;;8.80;1.00;;;;;;4975832;28;20211;-80
2023/12/27 03:50:29;;;;;;;5.20;3.03;;;8.80;1.00;;;;;;4983181;28;20175;-80
2023/12/27 03:52:55;;;;;;;6.13;3.27;;;8.90;1.00;;;;;;4973722;28;20697;-80
2023/12/27 03:55:23;;;;;;;5.83;3.13;;;8.80;1.00;;;;;;4974489;28;20181;-79
2023/12/27 03:57:49;;;;;;;7.20;3.40;;;8.80;1.00;;;;;;4980621;28;20218;-80
2023/12/27 04:00:15;;;;;;;5.63;4.63;;;8.80;1.00;;;;;;4974838;28;20543;-80
2023/12/27 04:02:40;;;;;;;4.60;2.97;;;8.90;1.00;;;;;;4978591;28;20559;-80
2023/12/27 04:05:06;;;;;;;9.00;3.20;;;8.90;1.00;;;;;;4973411;28;20423;-80
2023/12/27 04:07:31;;;;;;;8.30;3.50;;;8.90;1.00;;;;;;4972919;28;20237;-80
2023/12/27 04:09:57;;;;;;;10.83;2.97;;;8.90;1.00;;;;;;4976488;28;20179;-79
2023/12/27 04:12:23;;;;;;;8.73;3.07;;;8.90;1.00;;;;;;4984042;28;20716;-80
2023/12/27 04:14:48;;;;;;;6.70;3.10;;;8.90;1.00;;;;;;4979230;28;20188;-80
2023/12/27 04:17:14;;;;;;;4.97;3.00;;;8.90;1.00;;;;;;4984906;28;20207;-80
2023/12/27 04:19:40;;;;;;;7.60;3.00;;;8.90;1.00;;;;;;4974273;28;20232;-80
2023/12/27 04:22:05;;;;;;;4.63;2.63;;;9.00;1.00;;;;;;4982354;28;20423;-80
2023/12/27 04:24:31;;;;;;;6.20;3.33;;;9.00;1.00;;;;;;4989588;28;20390;-79
2023/12/27 04:26:56;;;;;;;5.57;2.93;;;9.00;1.00;;;;;;4980073;28;20207;-80
2023/12/27 04:29:22;;;;;;;11.10;3.37;;;9.00;1.00;;;;;;4979426;28;20188;-80
2023/12/27 04:31:48;;;;;;;8.53;3.40;;;9.00;1.00;;;;;;4986032;28;20180;-79
2023/12/27 04:34:13;;;;;;;7.33;2.70;;;9.00;1.00;;;;;;4980547;28;20187;-81
2023/12/27 04:36:39;;;;;;;6.93;3.40;;;9.00;1.00;;;;;;4977375;28;20279;-79
2023/12/27 04:39:06;;;;;;;5.87;2.70;;;9.10;1.00;;;;;;4981168;28;20187;-80
2023/12/27 04:41:32;;;;;;;7.80;3.50;;;9.10;1.00;;;;;;4982768;28;20208;-80
2023/12/27 04:43:57;;;;;;;10.00;3.80;;;9.10;1.00;;;;;;4985684;28;20489;-79
2023/12/27 04:46:23;;;;;;;4.77;2.93;;;9.10;1.00;;;;;;4979539;28;20234;-78
2023/12/27 04:48:48;;;;;;;5.50;3.40;;;9.10;1.00;;;;;;4983828;28;20183;-79
2023/12/27 04:51:14;;;;;;;5.47;2.83;;;9.10;1.00;;;;;;4982748;28;20187;-80
2023/12/27 04:53:39;;;;;;;3.50;2.67;;;9.10;1.00;;;;;;4977609;28;20198;-80
2023/12/27 04:56:05;;;;;;;10.80;2.50;;;9.10;1.00;;;;;;4985289;28;20211;-80
2023/12/27 04:58:35;;;;;;;3.80;2.50;;;9.20;1.00;;;;;;4988951;28;20190;-80
2023/12/27 05:01:04;;;;;;;4.77;2.40;;;9.20;1.00;;;;;;4986196;28;20187;-79
2023/12/27 05:03:34;;;;;;;3.80;2.33;;;9.20;1.00;;;;;;4982020;28;20473;-79
2023/12/27 05:05:59;;;;;;;7.70;2.90;;;9.30;1.00;;;;;;4977535;28;20454;-80
2023/12/27 05:08:25;;;;;;;7.23;3.70;;;9.20;1.00;;;;;;4982098;28;20414;-80
2023/12/27 05:10:50;;;;;;;5.70;3.20;;;9.20;1.00;;;;;;4985179;28;20191;-76
2023/12/27 05:13:16;;;;;;;9.40;2.67;;;9.20;1.00;;;;;;4978497;28;20234;-78
2023/12/27 05:15:41;;;;;;;7.27;2.63;;;9.30;1.00;;;;;;4981029;28;20218;-79
2023/12/27 05:18:07;;;;;;;7.53;2.20;;;9.40;1.00;;;;;;4981442;28;20187;-80
2023/12/27 05:20:32;;;;;;;10.57;2.53;;;9.40;1.00;;;;;;4973496;28;20191;-79
2023/12/27 05:22:58;;;;;;;7.70;2.53;;;9.50;1.00;;;;;;4977052;28;20207;-80
2023/12/27 05:25:23;;;;;;;5.27;2.97;;;9.40;1.00;;;;;;4981931;28;20183;-81
2023/12/27 05:27:49;;;;;;;4.03;2.30;;;9.40;1.00;;;;;;4979544;28;20211;-79
2023/12/27 05:30:14;;;;;;;9.43;2.80;;;9.40;1.00;;;;;;4973798;28;20618;-80
2023/12/27 05:32:40;;;;;;;6.20;2.80;;;9.30;1.00;;;;;;4977314;28;20302;-80
2023/12/27 05:35:06;;;;;;;4.00;2.27;;;9.30;1.00;;;;;;4981822;28;20184;-80
2023/12/27 05:37:31;;;;;;;6.20;2.70;;;9.30;1.00;;;;;;4979198;28;20215;-80
2023/12/27 05:39:57;;;;;;;3.77;2.70;;;9.30;1.00;;;;;;4986694;28;20270;-79
2023/12/27 05:42:23;;;;;;;9.53;3.10;;;9.20;1.00;;;;;;4983558;28;20195;-80
2023/12/27 05:44:48;;;;;;;8.20;2.70;;;9.30;1.00;;;;;;4989914;28;20191;-79
2023/12/27 05:47:14;;;;;;;7.33;2.80;;;9.20;1.00;;;;;;4983525;28;20496;-80
2023/12/27 05:49:39;;;;;;;6.50;2.67;;;9.30;1.00;;;;;;4976811;28;20226;-80
2023/12/27 05:52:05;;;;;;;11.50;2.87;;;9.30;1.00;;;;;;4982023;28;20194;-80
2023/12/27 05:54:30;;;;;;;5.23;2.80;;;9.30;1.00;;;;;;4981554;28;20194;-79
2023/12/27 05:56:56;;;;;;;4.40;3.00;;;9.30;1.00;;;;;;4981774;28;20271;-80
2023/12/27 05:59:21;;;;;;;7.67;2.80;;;9.30;1.00;;;;;;4986896;28;20203;-80
2023/12/27 06:01:54;;;;;;;6.60;2.37;;;9.30;1.00;;;;;;4973231;28;20188;-79
2023/12/27 06:04:20;;;;;;;2.53;2.17;;;9.30;1.00;;;;;;4980880;28;20207;-79
2023/12/27 06:06:49;;;;;;;5.80;2.20;;;9.30;1.00;;;;;;4982329;28;20965;-79
2023/12/27 06:09:18;;;;;;;6.97;3.23;;;9.20;1.00;;;;;;4979096;28;20849;-78
2023/12/27 06:11:44;;;;;;;11.03;3.10;;;9.20;1.00;;;;;;4986584;28;20446;-80
2023/12/27 06:14:10;;;;;;;4.20;3.30;;;9.20;1.00;;;;;;4990228;28;20426;-80
2023/12/27 06:16:35;;;;;;;5.00;2.77;;;9.20;1.00;;;;;;4982052;28;20540;-79
2023/12/27 06:19:01;;;;;;;15.80;3.37;;;9.20;1.00;;;;;;4983940;28;20434;-79
2023/12/27 06:21:27;;;;;;;8.23;4.00;;;9.10;1.00;;;;;;4981965;28;20241;-78
2023/12/27 06:23:52;;;;;;;7.47;3.17;;;9.20;1.00;;;;;;4977640;28;20689;-79
2023/12/27 06:26:18;;;;;;;9.17;2.83;;;9.20;1.00;;;;;;4976477;28;20210;-80
2023/12/27 06:28:44;;;;;;;4.07;2.30;;;9.20;1.00;;;;;;4981117;28;20191;-80
2023/12/27 06:31:10;;;;;;;5.20;2.70;;;9.10;1.00;;;;;;4978725;28;20184;-80
2023/12/27 06:33:36;;;;;;;5.00;3.00;;;9.20;1.00;;;;;;4972748;28;20545;-80
2023/12/27 06:36:04;;;;;;;12.50;3.43;;;9.20;1.00;;;;;;4971339;28;20545;-79
2023/12/27 06:38:29;;;;;;;15.70;7.40;;;9.10;1.00;;;;;;4981631;28;20441;-79
2023/12/27 06:40:55;;;;;;;13.90;6.73;;;9.10;1.00;;;;;;4978317;28;20427;-79
2023/12/27 06:43:21;;;;;;;6.40;4.10;;;9.10;1.00;;;;;;4977603;28;20337;-80
2023/12/27 06:45:47;;;;;;;14.97;4.90;;;9.10;1.00;;;;;;4987742;28;20219;-79
2023/12/27 06:48:12;;;;;;;6.03;4.10;;;9.10;1.00;;;;;;4972939;28;20270;-79
2023/12/27 06:50:38;;;;;;;7.17;4.57;;;9.10;1.00;;;;;;4972447;28;20187;-79
2023/12/27 06:53:03;;;;;;;8.20;4.60;;;9.10;1.00;;;;;;4971801;28;20382;-79
2023/12/27 06:55:30;;;;;;;9.67;4.37;;;9.10;1.00;;;;;;4979185;28;20215;-78
2023/12/27 06:57:55;;;;;;;7.53;4.27;;;9.10;1.00;;;;;;4973869;28;20594;-80
2023/12/27 07:00:21;;;;;;;5.00;3.70;;;9.20;1.00;;;;;;4972718;28;20435;-81
2023/12/27 07:02:47;;;;;;;4.90;3.70;;;9.10;1.00;;;;;;4976259;28;20677;-79
2023/12/27 07:05:12;;;;;;;7.57;3.60;;;9.10;1.00;;;;;;4977762;28;20263;-79
2023/12/27 07:07:38;;;;;;;6.70;4.50;;;9.70;1.00;;;;;;4970481;28;20226;-79
2023/12/27 07:10:05;;;;;;;10.10;5.37;;;9.10;1.00;;;;;;4972470;28;20274;-80
2023/12/27 07:12:30;;;;;;;7.60;4.90;;;9.10;1.00;;;;;;4978972;28;20469;-79
2023/12/27 07:14:57;;;;;;;7.60;3.83;;;9.10;1.00;;;;;;4978452;28;20416;-79
2023/12/27 07:17:23;;;;;;;5.10;3.10;;;9.10;1.00;;;;;;4978865;28;20227;-79
2023/12/27 07:19:49;;;;;;;7.73;3.77;;;9.20;1.00;;;;;;4980982;28;20434;-81
2023/12/27 07:22:15;;;;;;;6.70;3.50;;;9.20;1.00;;;;;;4979675;28;20428;-79
2023/12/27 07:24:40;;;;;;;5.10;3.20;;;9.20;1.00;;;;;;4972615;28;20188;-79
2023/12/27 07:27:06;;;;;;;5.17;3.13;;;9.20;1.00;;;;;;4980728;28;20195;-80
2023/12/27 07:29:33;;;;;;;10.67;3.50;;;9.20;1.00;;;;;;4977502;28;20186;-80
2023/12/27 07:31:58;;;;;;;10.23;3.30;;;9.20;1.00;;;;;;4978361;28;20184;-80
2023/12/27 07:34:24;;;;;;;11.00;3.50;;;9.30;1.00;;;;;;4975673;28;20921;-79
2023/12/27 07:36:49;;;;;;;7.07;3.80;;;9.20;1.00;;;;;;4971535;28;20725;-79
2023/12/27 07:39:15;;;;;;;4.77;3.10;;;9.20;1.00;;;;;;4987322;28;20287;-79
2023/12/27 07:41:42;;;;;;;6.70;3.27;;;9.20;1.00;;;;;;4973591;28;20544;-79
2023/12/27 07:44:08;;;;;;;12.03;3.93;;;9.30;1.00;;;;;;4980688;28;20991;-80
2023/12/27 07:46:34;;;;;;;5.97;3.53;;;9.30;1.00;;;;;;4977594;28;20979;-79
2023/12/27 07:49:01;;;;;;;10.60;3.50;;;9.30;1.00;;;;;;4974230;28;20870;-80
2023/12/27 07:51:27;;;;;;;9.27;2.90;;;9.30;1.00;;;;;;4972150;28;20522;-79
2023/12/27 07:53:53;;;;;;;5.20;3.23;;;9.30;1.00;;;;;;4971813;28;20474;-79
2023/12/27 07:56:18;;;;;;;7.77;3.30;;;9.40;1.00;;;;;;4970740;28;20597;-79
2023/12/27 07:58:45;;;;;;;6.90;2.80;;;9.40;1.00;;;;;;4979141;28;20363;-79
2023/12/27 08:01:11;;;;;;;14.93;3.37;;;9.50;1.00;;;;;;4982704;28;20183;-80
2023/12/27 08:03:38;;;;;;;4.53;3.00;;;9.60;1.00;;;;;;4980596;28;20481;-78
2023/12/27 08:06:06;;;;;;;4.13;2.43;;;9.60;1.00;;;;;;4980827;28;20589;-79
2023/12/27 08:08:35;;;;;;;7.73;3.27;;;9.60;1.00;;;;;;4975011;28;20492;-80
2023/12/27 08:11:03;;;;;;;4.93;2.87;;;9.60;1.00;;;;;;4969928;28;20419;-78
2023/12/27 08:13:32;;;;;;;5.80;3.10;;;9.60;1.00;;;;;;4971317;28;20431;-79
2023/12/27 08:15:58;;;;;;;6.57;3.10;;;9.50;1.00;;;;;;4977589;28;20537;-77
2023/12/27 08:18:23;;;;;;;5.23;3.40;;;9.50;1.00;;;;;;4976749;28;21016;-80
2023/12/27 08:20:50;;;;;;;4.43;3.17;;;9.40;1.00;;;;;;4970109;28;20298;-77
2023/12/27 08:23:18;;;;;;;4.63;3.43;;;9.50;1.00;;;;;;4970135;28;20500;-79
2023/12/27 08:25:47;;;;;;;6.07;3.33;;;9.50;1.00;;;;;;4977583;28;20948;-79
2023/12/27 08:28:14;;;;;;;6.30;3.27;;;9.40;1.00;;;;;;4984287;28;20430;-79
2023/12/27 08:30:40;;;;;;;6.78;3.50;;;9.50;1.00;;;;;;4976472;28;20413;-79
2023/12/27 08:33:08;;;;;;;8.57;4.30;;;9.60;1.00;;;;;;4973172;28;20249;-78
2023/12/27 08:35:34;;;;;;;10.43;3.30;;;9.70;1.00;;;;;;4976114;28;20270;-78
2023/12/27 08:38:00;;;;;;;13.40;6.20;;;9.80;1.00;;;;;;4973037;28;20522;-78
2023/12/27 08:40:25;;;;;;;18.83;7.17;;;9.80;1.00;;;;;;4977673;28;20198;-80
2023/12/27 08:42:51;;;;;;;9.13;4.60;;;9.80;1.00;;;;;;4975782;28;20214;-79
2023/12/27 08:45:16;;;;;;;14.43;6.90;;;9.80;1.00;;;;;;4969626;28;20176;-79
2023/12/27 08:47:43;;;;;;;10.53;4.83;;;9.80;1.00;;;;;;4984917;28;20685;-78
2023/12/27 08:50:09;;;;;;;6.87;4.30;;;9.80;1.00;;;;;;4972138;28;20184;-80
2023/12/27 08:52:35;;;;;;;10.10;4.30;;;9.80;1.00;;;;;;4984129;28;20430;-79
2023/12/27 08:55:02;;;;;;;7.63;3.97;;;9.90;1.00;;;;;;4979181;28;20215;-78
2023/12/27 08:57:27;;;;;;;8.50;4.00;;;10.10;1.00;;;;;;4975019;28;20941;-79
2023/12/27 08:59:53;;;;;;;8.27;4.50;;;10.20;1.00;;;;;;4977543;28;20478;-79
2023/12/27 09:02:18;;;;;;;8.50;4.13;;;10.20;1.00;;;;;;4979899;28;20188;-79
2023/12/27 09:04:44;;;;;;;6.17;4.50;;;10.20;1.00;;;;;;4972101;28;20271;-77
2023/12/27 09:07:09;;;;;;;9.03;5.00;;;10.20;1.00;;;;;;4977080;28;20214;-78
2023/12/27 09:09:35;;;;;;;8.63;4.50;;;10.50;1.00;;;;;;4978164;28;20202;-80
2023/12/27 09:12:04;;;;;;;10.10;5.07;;;10.70;1.00;;;;;;4980820;28;20600;-79
2023/12/27 09:14:29;;;;;;;11.27;4.20;;;10.70;1.00;;;;;;4973158;28;20565;-78
2023/12/27 09:16:55;;;;;;;8.60;4.33;;;10.70;1.00;;;;;;4972058;28;20463;-79
2023/12/27 09:19:20;;;;;;;6.67;4.73;;;10.70;1.00;;;;;;4978096;28;20330;-79
2023/12/27 09:21:46;;;;;;;7.40;4.50;;;10.70;1.00;;;;;;4983951;28;20195;-79
2023/12/27 09:24:12;;;;;;;7.27;4.50;;;10.70;1.00;;;;;;4971776;28;20213;-79
2023/12/27 09:26:38;;;;;;;7.10;4.90;;;10.80;1.00;;;;;;4980403;28;20448;-78
2023/12/27 09:29:04;;;;;;;8.53;4.90;;;10.90;1.00;;;;;;4978683;28;20297;-79
2023/12/27 09:31:30;;;;;;;8.00;4.40;;;11.50;1.00;;;;;;4984300;28;20186;-79
2023/12/27 09:34:02;;;;;;;12.03;4.87;;;12.50;1.00;;;;;;4983491;28;20192;-78
2023/12/27 09:36:28;;;;;;;6.10;4.47;;;13.10;1.00;;;;;;4986005;28;20465;-78
2023/12/27 09:38:54;;;;;;;9.50;4.83;;;13.40;1.00;;;;;;4979882;28;20439;-79
2023/12/27 09:41:20;;;;;;;10.60;4.80;;;13.70;1.00;;;;;;4974127;28;20787;-79
2023/12/27 09:43:46;;;;;;;6.20;4.27;;;13.90;1.00;;;;;;4977477;28;20218;-79
2023/12/27 09:46:17;;;;;;;10.10;4.87;;;14.30;1.00;;;;;;4984765;28;20203;-79
2023/12/27 09:48:44;;;;;;;6.80;4.70;;;15.00;1.00;;;;;;4977412;28;20430;-79
2023/12/27 09:51:13;;;;;;;9.63;5.30;;;16.00;1.00;;;;;;4980509;28;20443;-79
2023/12/27 09:53:40;;;;;;;11.30;6.07;;;16.90;1.00;;;;;;4984440;28;20525;-79
2023/12/27 09:56:07;;;;;;;10.30;5.77;;;18.80;1.00;;;;;;4985805;28;20457;-79
2023/12/27 09:58:35;;;;;;;8.87;5.80;;;19.80;1.00;;;;;;4982804;28;20431;-79
2023/12/27 10:01:02;;;;;;;12.63;5.60;;;19.60;1.00;;;;;;4982343;28;20430;-78
2023/12/27 10:03:41;;;;;;;10.07;6.80;;;19.00;1.00;;;;;;4985387;28;20561;-79
2023/12/27 10:06:18;;;;;;;9.10;5.43;;;16.40;1.00;;;;;;4973393;28;20454;-79
2023/12/27 10:08:44;;;;;;;10.23;5.97;;;16.10;1.00;;;;;;4975991;28;20423;-79
2023/12/27 10:11:11;;;;;;;8.90;5.53;;;16.00;1.00;;;;;;4975897;28;20443;-78
2023/12/27 10:13:41;;;;;;;7.30;5.50;;;16.20;1.00;;;;;;4982186;28;20464;-79
2023/12/27 10:16:06;;;;;;;10.17;6.00;;;16.90;1.00;;;;;;4985371;28;20838;-78
2023/12/27 10:18:32;;;;;;;9.17;5.23;;;17.30;1.00;;;;;;4985307;28;20430;-79
2023/12/27 10:20:58;;;;;;;9.90;6.00;;;18.60;1.00;;;;;;4982335;28;20415;-79
2023/12/27 10:23:24;;;;;;;8.83;5.27;;;18.90;1.00;;;;;;4975870;28;20847;-79
2023/12/27 10:25:53;;;;;;;10.07;5.77;;;17.80;1.00;;;;;;4979179;28;20485;-79
2023/12/27 10:28:24;;;;;;;9.00;5.20;;;17.60;1.00;;;;;;4972206;28;20183;-79
2023/12/27 10:30:51;;;;;;;9.20;5.30;;;16.60;1.00;;;;;;4978647;28;20522;-79
2023/12/27 10:33:19;;;;;;;7.77;5.47;;;15.90;1.00;;;;;;4981831;28;20457;-77
2023/12/27 10:35:45;;;;;;;6.70;4.60;;;14.80;1.00;;;;;;4982292;28;20463;-79
2023/12/27 10:38:10;;;;;;;6.20;4.53;;;14.70;1.00;;;;;;4978671;28;20514;-78
2023/12/27 10:40:39;;;;;;;5.80;4.50;;;14.90;1.00;;;;;;4983280;28;20187;-79
2023/12/27 10:43:04;;;;;;;7.27;4.57;;;15.80;1.00;;;;;;4985544;28;20559;-78
2023/12/27 10:45:30;;;;;;;9.83;4.63;;;16.50;1.00;;;;;;4983263;28;20438;-79
2023/12/27 10:48:04;;;;;;;5.37;3.97;;;16.50;1.00;;;;;;4981760;28;20226;-77
2023/12/27 10:50:31;;;;;;;5.20;3.87;;;16.70;1.00;;;;;;4971623;28;20591;-78
2023/12/27 10:53:06;;;;;;;7.00;4.30;;;18.20;1.00;;;;;;4986145;28;20449;-77
2023/12/27 10:55:36;;;;;;;7.20;3.70;;;20.50;1.00;;;;;;4976636;28;20939;-77
2023/12/27 10:58:05;;;;;;;6.77;3.83;;;20.40;1.00;;;;;;4979132;28;20431;-78
2023/12/27 11:00:31;;;;;;;6.87;3.93;;;20.50;1.00;;;;;;4983078;28;20465;-78
2023/12/27 11:02:59;;;;;;;6.67;4.23;;;21.50;1.00;;;;;;4981895;28;20497;-77
2023/12/27 11:05:29;;;;;;;5.60;3.90;;;20.30;1.00;;;;;;4986424;28;20237;-79
2023/12/27 11:07:56;;;;;;;7.10;4.20;;;20.20;1.00;;;;;;4982751;28;20507;-79
2023/12/27 11:10:23;;;;;;;7.23;3.80;;;19.00;1.00;;;;;;4964625;28;20496;-79
2023/12/27 11:12:50;;;;;;;8.17;4.10;;;18.30;1.00;;;;;;4980128;28;20937;-78
2023/12/27 11:15:18;;;;;;;7.30;4.30;;;18.20;1.00;;;;;;4978220;28;20423;-79
2023/12/27 11:17:45;;;;;;;7.80;4.03;;;17.60;1.00;;;;;;4976534;28;20474;-80
2023/12/27 11:20:12;;;;;;;6.27;3.50;;;17.10;1.00;;;;;;4973430;28;20518;-78
2023/12/27 11:22:39;;;;;;;6.77;4.13;;;16.00;1.00;;;;;;4982108;28;20449;-78
2023/12/27 11:25:05;;;;;;;4.93;3.60;;;15.10;1.00;;;;;;4980176;28;20825;-78
2023/12/27 11:27:31;;;;;;;4.63;3.70;;;14.40;1.00;;;;;;4983874;28;20473;-78
2023/12/27 11:30:00;;;;;;;7.80;3.43;;;14.20;1.00;;;;;;4975250;28;21757;-78
2023/12/27 11:32:27;;;;;;;4.50;3.10;;;14.00;1.00;;;;;;4979794;28;20434;-78
2023/12/27 11:34:54;;;;;;;4.63;3.00;;;13.80;1.00;;;;;;4984668;28;20567;-77
2023/12/27 11:37:25;;;;;;;4.57;3.03;;;13.80;1.00;;;;;;4981210;28;20508;-78
2023/12/27 11:39:52;;;;;;;4.40;2.93;;;11.90;1.00;;;;;;4983847;28;21081;-77
2023/12/27 11:42:18;;;;;;;4.43;2.90;;;14.30;1.00;;;;;;4976647;28;20783;-77
2023/12/27 11:44:54;;;;;;;4.93;2.60;;;14.80;1.00;;;;;;4980071;28;20538;-77
2023/12/27 11:47:22;;;;;;;11.23;2.70;;;;;;;;;;4972490;28;20253;-76
2023/12/27 11:50:09;;;;;;;4.03;2.83;;;16.00;1.00;;;;;;4977723;28;20429;-76
2023/12/27 11:52:47;;;;;;;4.10;2.70;;;16.50;1.00;;;;;;4962930;28;20806;-77
2023/12/27 11:55:18;;;;;;;4.93;3.10;;;17.00;1.00;;;;;;4972714;28;20419;-76
2023/12/27 11:57:43;;;;;;;4.93;2.70;;;17.40;1.00;;;;;;4981104;28;20442;-78
2023/12/27 12:00:13;;;;;;;4.13;3.07;;;17.60;1.00;;;;;;4987387;28;20437;-75
2023/12/27 12:02:53;;;;;;;4.83;2.90;;;17.40;1.00;;;;;;4973849;28;20192;-75
2023/12/27 12:05:57;;;;;;;4.70;3.03;;;16.40;1.00;;;;;;4978833;28;20445;-76
2023/12/27 12:08:33;;;;;;;3.43;2.37;;;16.30;1.00;;;;;;4981685;28;20433;-75
2023/12/27 12:11:10;;;;;;;3.43;2.77;;;16.50;1.00;;;;;;4974395;28;20431;-75
2023/12/27 12:13:40;;;;;;;5.80;2.70;;;16.70;1.00;;;;;;4983546;28;20429;-75
2023/12/27 12:16:09;;;;;;;4.13;2.60;;;16.40;1.00;;;;;;4981461;28;20701;-75
2023/12/27 12:18:36;;;;;;;3.53;2.57;;;16.40;1.00;;;;;;4990592;28;20476;-76
2023/12/27 12:21:03;;;;;;;5.43;2.60;;;16.50;1.00;;;;;;4981624;28;20769;-75
2023/12/27 12:23:33;;;;;;;2.73;2.40;;;16.50;1.00;;;;;;4979285;28;21003;-75
2023/12/27 12:26:03;;;;;;;5.80;3.10;;;16.10;1.00;;;;;;4969959;28;20498;-77
2023/12/27 12:28:29;;;;;;;5.30;2.90;;;16.00;1.00;;;;;;4975536;28;20427;-76
2023/12/27 12:30:58;;;;;;;11.33;2.73;;;15.60;1.00;;;;;;4974383;28;21003;-77
2023/12/27 12:33:25;;;;;;;2.90;2.27;;;15.50;1.00;;;;;;4977303;28;20438;-76
2023/12/27 12:35:52;;;;;;;3.63;2.30;;;14.60;1.00;;;;;;4977344;28;20480;-78
2023/12/27 12:38:20;;;;;;;5.00;2.53;;;14.40;1.00;;;;;;4973018;28;20902;-78
2023/12/27 12:40:47;;;;;;;6.23;2.73;;;14.20;1.00;;;;;;4982220;28;20465;-77
2023/12/27 12:43:17;;;;;;;4.50;2.47;;;14.20;1.00;;;;;;4980161;28;20473;-77
2023/12/27 12:45:44;;;;;;;5.70;2.97;;;14.20;1.00;;;;;;4976551;28;20463;-77
2023/12/27 12:48:10;;;;;;;3.43;2.17;;;14.20;1.00;;;;;;4975198;28;20425;-78
2023/12/27 12:50:35;;;;;;;3.10;2.27;;;14.10;1.00;;;;;;4988840;28;20957;-78
2023/12/27 12:53:17;;;;;;;3.70;2.30;;;14.00;1.00;;;;;;4985420;28;20426;-76
2023/12/27 12:55:44;;;;;;;2.60;1.80;;;13.70;1.00;;;;;;4972878;28;20222;-77
2023/12/27 12:58:11;;;;;;;2.93;2.07;;;13.70;1.00;;;;;;4975619;28;20418;-76
2023/12/27 13:00:37;;;;;;;4.67;2.03;;;13.60;1.00;;;;;;4981380;28;20849;-76